createdAt,value
2022-11-17T00:00:46.768Z,6.49
2022-11-17T00:01:46.733Z,6.50
2022-11-17T00:02:46.857Z,6.50
2022-11-17T00:03:46.725Z,6.51
2022-11-17T00:04:46.698Z,6.51
2022-11-17T00:05:46.697Z,6.51
2022-11-17T00:06:46.677Z,6.51
2022-11-17T00:07:46.659Z,6.50
2022-11-17T00:08:46.645Z,6.49
2022-11-17T00:09:46.627Z,6.49
2022-11-17T00:10:46.635Z,6.48
2022-11-17T00:11:46.600Z,6.47
2022-11-17T00:12:46.592Z,6.46
2022-11-17T00:13:46.579Z,6.46
2022-11-17T00:14:46.564Z,6.46
2022-11-17T00:15:46.564Z,6.46
2022-11-17T00:16:46.570Z,6.46
2022-11-17T00:17:46.525Z,6.46
2022-11-17T00:18:46.527Z,6.46
2022-11-17T00:19:46.515Z,6.46
2022-11-17T00:20:46.490Z,6.46
2022-11-17T00:21:46.483Z,6.47
2022-11-17T00:22:46.487Z,6.48
2022-11-17T00:23:46.462Z,6.48
2022-11-17T00:24:46.437Z,6.48
2022-11-17T00:25:46.436Z,6.48
2022-11-17T00:26:46.433Z,6.48
2022-11-17T00:27:46.402Z,6.48
2022-11-17T00:28:46.382Z,6.48
2022-11-17T00:29:46.375Z,6.48
2022-11-17T00:30:46.363Z,6.48
2022-11-17T00:31:46.343Z,6.48
2022-11-17T00:32:46.337Z,6.48
2022-11-17T00:33:46.316Z,6.49
2022-11-17T00:34:46.313Z,6.50
2022-11-17T00:35:46.288Z,6.51
2022-11-17T00:36:46.287Z,6.51
2022-11-17T00:37:46.288Z,6.51
2022-11-17T00:38:46.253Z,6.51
2022-11-17T00:39:46.248Z,6.51
2022-11-17T00:40:46.240Z,6.50
2022-11-17T00:41:46.214Z,6.49
2022-11-17T00:42:46.202Z,6.48
2022-11-17T00:43:46.201Z,6.46
2022-11-17T00:44:46.186Z,6.45
2022-11-17T00:45:46.180Z,6.44
2022-11-17T00:46:46.168Z,6.43
2022-11-17T00:47:46.132Z,6.42
2022-11-17T00:48:46.126Z,6.41
2022-11-17T00:49:46.128Z,6.41
2022-11-17T00:50:46.098Z,6.40
2022-11-17T00:51:46.095Z,6.40
2022-11-17T00:52:46.087Z,6.40
2022-11-17T00:53:46.055Z,6.40
2022-11-17T00:54:46.046Z,6.40
2022-11-17T00:55:46.103Z,6.40
2022-11-17T00:56:46.020Z,6.40
2022-11-17T00:57:46.013Z,6.39
2022-11-17T00:58:46.029Z,6.39
2022-11-17T00:59:45.997Z,6.38
2022-11-17T01:00:45.966Z,6.38
2022-11-17T01:01:46.025Z,6.39
2022-11-17T01:02:45.943Z,6.39
2022-11-17T01:03:45.924Z,6.39
2022-11-17T01:04:45.932Z,6.40
2022-11-17T01:05:45.907Z,6.40
2022-11-17T01:06:45.888Z,6.41
2022-11-17T01:07:45.903Z,6.41
2022-11-17T01:08:45.868Z,6.42
2022-11-17T01:09:45.863Z,6.43
2022-11-17T01:10:45.847Z,6.44
2022-11-17T01:11:45.838Z,6.45
2022-11-17T01:12:45.825Z,6.47
2022-11-17T01:13:45.812Z,6.48
2022-11-17T01:14:45.786Z,6.49
2022-11-17T01:15:45.774Z,6.49
2022-11-17T01:16:45.793Z,6.50
2022-11-17T01:17:45.747Z,6.51
2022-11-17T01:18:45.744Z,6.51
2022-11-17T01:19:45.726Z,6.51
2022-11-17T01:20:45.704Z,6.51
2022-11-17T01:21:45.697Z,6.51
2022-11-17T01:22:45.693Z,6.50
2022-11-17T01:23:45.680Z,6.49
2022-11-17T01:24:45.651Z,6.48
2022-11-17T01:25:45.652Z,6.48
2022-11-17T01:26:45.641Z,6.47
2022-11-17T01:27:45.618Z,6.47
2022-11-17T01:28:45.619Z,6.47
2022-11-17T01:29:45.592Z,6.47
2022-11-17T01:30:45.579Z,6.47
2022-11-17T01:31:45.593Z,6.47
2022-11-17T01:32:45.547Z,6.47
2022-11-17T01:33:45.546Z,6.47
2022-11-17T01:34:45.545Z,6.46
2022-11-17T01:35:45.521Z,6.45
2022-11-17T01:36:45.497Z,6.44
2022-11-17T01:37:45.495Z,6.43
2022-11-17T01:38:45.475Z,6.42
2022-11-17T01:39:45.465Z,6.40
2022-11-17T01:40:45.449Z,6.37
2022-11-17T01:41:45.440Z,6.36
2022-11-17T01:42:45.419Z,6.34
2022-11-17T01:43:45.420Z,6.33
2022-11-17T01:44:45.415Z,6.32
2022-11-17T01:45:45.400Z,6.31
2022-11-17T01:46:45.382Z,6.30
2022-11-17T01:47:45.422Z,6.30
2022-11-17T01:48:45.362Z,6.29
2022-11-17T01:49:45.344Z,6.29
2022-11-17T01:50:45.334Z,6.29
2022-11-17T01:51:45.308Z,6.30
2022-11-17T01:52:45.342Z,6.31
2022-11-17T01:53:45.398Z,6.32
2022-11-17T01:54:45.263Z,6.33
2022-11-17T01:55:45.280Z,6.33
2022-11-17T01:56:45.242Z,6.33
2022-11-17T01:57:45.239Z,6.32
2022-11-17T01:58:45.222Z,6.32
2022-11-17T01:59:45.214Z,6.31
2022-11-17T02:00:45.185Z,6.30
2022-11-17T02:01:45.194Z,6.30
2022-11-17T02:02:45.166Z,6.30
2022-11-17T02:03:45.147Z,6.32
2022-11-17T02:04:45.152Z,6.34
2022-11-17T02:05:45.122Z,6.35
2022-11-17T02:06:45.105Z,6.37
2022-11-17T02:07:45.126Z,6.38
2022-11-17T02:08:45.081Z,6.38
2022-11-17T02:09:45.078Z,6.37
2022-11-17T02:10:51.333Z,6.36
2022-11-17T02:11:45.052Z,6.36
2022-11-17T02:12:45.040Z,6.35
2022-11-17T02:13:45.085Z,6.34
2022-11-17T02:14:45.012Z,6.33
2022-11-17T02:15:45.002Z,6.32
2022-11-17T02:16:44.988Z,6.31
2022-11-17T02:17:44.980Z,6.30
2022-11-17T02:18:44.949Z,6.29
2022-11-17T02:19:44.950Z,6.28
2022-11-17T02:20:44.932Z,6.27
2022-11-17T02:21:44.915Z,6.25
2022-11-17T02:22:44.913Z,6.25
2022-11-17T02:23:44.938Z,6.25
2022-11-17T02:24:44.877Z,6.26
2022-11-17T02:25:44.897Z,6.27
2022-11-17T02:26:44.847Z,6.27
2022-11-17T02:27:44.838Z,6.28
2022-11-17T02:28:44.824Z,6.28
2022-11-17T02:29:44.814Z,6.28
2022-11-17T02:30:44.803Z,6.28
2022-11-17T02:31:44.800Z,6.28
2022-11-17T02:32:44.767Z,6.28
2022-11-17T02:33:44.813Z,6.29
2022-11-17T02:34:44.742Z,6.30
2022-11-17T02:35:44.745Z,6.32
2022-11-17T02:36:44.732Z,6.33
2022-11-17T02:37:44.718Z,6.34
2022-11-17T02:38:44.709Z,6.35
2022-11-17T02:39:44.687Z,6.36
2022-11-17T02:40:44.692Z,6.38
2022-11-17T02:41:44.661Z,6.39
2022-11-17T02:42:44.652Z,6.39
2022-11-17T02:43:44.675Z,6.40
2022-11-17T02:44:44.612Z,6.40
2022-11-17T02:45:44.602Z,6.41
2022-11-17T02:46:44.589Z,6.42
2022-11-17T02:47:44.584Z,6.43
2022-11-17T02:48:44.572Z,6.44
2022-11-17T02:49:44.553Z,6.45
2022-11-17T02:50:44.542Z,6.46
2022-11-17T02:51:44.535Z,6.47
2022-11-17T02:52:44.515Z,6.48
2022-11-17T02:53:44.496Z,6.49
2022-11-17T02:54:44.494Z,6.50
2022-11-17T02:55:44.487Z,6.51
2022-11-17T02:56:44.455Z,6.51
2022-11-17T02:57:44.447Z,6.52
2022-11-17T02:58:44.443Z,6.53
2022-11-17T02:59:44.419Z,6.55
2022-11-17T03:00:44.404Z,6.56
2022-11-17T03:01:44.483Z,6.56
2022-11-17T03:02:44.380Z,6.55
2022-11-17T03:03:44.372Z,6.55
2022-11-17T03:04:44.353Z,6.54
2022-11-17T03:05:44.351Z,6.53
2022-11-17T03:06:44.334Z,6.52
2022-11-17T03:07:44.314Z,6.51
2022-11-17T03:08:44.304Z,6.51
2022-11-17T03:09:44.286Z,6.50
2022-11-17T03:10:44.285Z,6.49
2022-11-17T03:11:44.272Z,6.48
2022-11-17T03:12:44.257Z,6.47
2022-11-17T03:13:44.237Z,6.46
2022-11-17T03:14:44.219Z,6.45
2022-11-17T03:15:44.223Z,6.45
2022-11-17T03:16:44.200Z,6.45
2022-11-17T03:17:44.201Z,6.45
2022-11-17T03:18:44.168Z,6.45
2022-11-17T03:19:44.159Z,6.45
2022-11-17T03:20:44.155Z,6.44
2022-11-17T04:10:21.630Z,7.40
2022-11-17T04:11:22.521Z,6.96
2022-11-17T04:12:22.467Z,6.66
2022-11-17T04:13:22.505Z,6.50
2022-11-17T04:14:22.489Z,6.40
2022-11-17T04:15:22.464Z,6.34
2022-11-17T04:16:22.415Z,6.30
2022-11-17T04:17:22.446Z,6.28
2022-11-17T04:18:22.435Z,6.26
2022-11-17T04:19:22.435Z,6.25
2022-11-17T04:20:22.439Z,6.23
2022-11-17T04:21:22.357Z,6.21
2022-11-17T04:22:22.363Z,6.20
2022-11-17T04:23:22.386Z,6.19
2022-11-17T04:24:22.334Z,6.19
2022-11-17T04:25:22.341Z,6.19
2022-11-17T04:26:22.361Z,6.18
2022-11-17T04:27:22.323Z,6.19
2022-11-17T04:28:22.302Z,6.19
2022-11-17T04:29:22.258Z,6.20
2022-11-17T04:30:22.242Z,6.20
2022-11-17T04:31:22.250Z,6.21
2022-11-17T04:32:22.316Z,6.21
2022-11-17T04:33:22.189Z,6.21
2022-11-17T04:34:22.223Z,6.22
2022-11-17T04:35:22.168Z,6.22
2022-11-17T04:36:22.190Z,6.22
2022-11-17T04:37:22.153Z,6.23
2022-11-17T04:38:22.210Z,6.24
2022-11-17T04:39:22.121Z,6.25
2022-11-17T04:40:22.110Z,6.25
2022-11-17T04:41:22.162Z,6.26
2022-11-17T04:42:41.152Z,6.26
2022-11-17T04:43:22.227Z,6.27
2022-11-17T04:44:22.277Z,6.27
2022-11-17T04:45:22.042Z,6.28
2022-11-17T04:46:22.033Z,6.28
2022-11-17T04:47:22.070Z,6.29
2022-11-17T04:48:22.063Z,6.29
2022-11-17T04:49:36.250Z,6.29
2022-11-17T04:50:22.063Z,6.29
2022-11-17T04:51:22.168Z,6.29
2022-11-17T04:52:25.509Z,6.29
2022-11-17T04:53:21.943Z,6.29
2022-11-17T04:54:21.935Z,6.29
2022-11-17T04:56:57.035Z,7.42
2022-11-17T04:57:58.014Z,6.98
2022-11-17T04:58:57.927Z,6.69
2022-11-17T04:59:57.937Z,6.52
2022-11-17T05:00:57.900Z,6.43
2022-11-17T05:02:04.201Z,6.38
2022-11-17T05:02:57.932Z,6.36
2022-11-17T05:03:57.860Z,6.34
2022-11-17T05:04:57.881Z,6.33
2022-11-17T05:05:57.858Z,6.32
2022-11-17T05:06:57.948Z,6.31
2022-11-17T05:12:39.656Z,7.41
2022-11-17T05:13:38.568Z,6.97
2022-11-17T05:14:40.774Z,6.69
2022-11-17T05:15:39.651Z,6.53
2022-11-17T05:16:38.120Z,6.44
2022-11-17T05:17:38.304Z,6.39
2022-11-17T05:18:58.972Z,6.37
2022-11-17T05:23:31.473Z,6.35
2022-11-17T05:27:48.785Z,7.39
2022-11-17T05:28:49.599Z,6.95
2022-11-17T05:29:49.595Z,6.66
2022-11-17T05:30:49.597Z,6.50
2022-11-17T05:31:49.553Z,6.42
2022-11-17T05:32:49.554Z,6.37
2022-11-17T05:33:49.531Z,6.35
2022-11-17T05:34:49.550Z,6.35
2022-11-17T05:35:49.508Z,6.35
2022-11-17T05:36:49.492Z,6.36
2022-11-17T05:37:49.463Z,6.37
2022-11-17T05:38:49.471Z,6.37
2022-11-17T05:39:49.451Z,6.37
2022-11-17T05:40:49.473Z,6.36
2022-11-17T05:41:49.422Z,6.34
2022-11-17T05:42:53.017Z,6.31
2022-11-17T05:43:49.409Z,6.30
2022-11-17T05:44:49.412Z,6.29
2022-11-17T05:45:49.378Z,6.29
2022-11-17T05:46:49.351Z,6.30
2022-11-17T05:47:49.387Z,6.31
2022-11-17T05:48:49.388Z,6.32
2022-11-17T05:49:49.315Z,6.35
2022-11-17T05:50:49.333Z,6.37
2022-11-17T05:51:52.725Z,6.39
2022-11-17T05:52:49.275Z,6.41
2022-11-17T05:53:49.255Z,6.42
2022-11-17T05:54:49.277Z,6.42
2022-11-17T05:55:49.239Z,6.41
2022-11-17T05:56:49.233Z,6.39
2022-11-17T05:57:49.209Z,6.36
2022-11-17T05:58:49.200Z,6.33
2022-11-17T05:59:49.192Z,6.30
2022-11-17T06:00:49.193Z,6.28
2022-11-17T06:01:49.155Z,6.28
2022-11-17T06:02:49.146Z,6.28
2022-11-17T06:03:49.187Z,6.29
2022-11-17T06:04:49.140Z,6.30
2022-11-17T06:05:49.115Z,6.32
2022-11-17T06:06:49.092Z,6.33
2022-11-17T06:07:49.082Z,6.33
2022-11-17T06:08:49.109Z,6.32
2022-11-17T06:09:49.072Z,6.30
2022-11-17T06:10:49.042Z,6.29
2022-11-17T06:11:49.021Z,6.28
2022-11-17T06:12:49.029Z,6.28
2022-11-17T06:13:49.002Z,6.27
2022-11-17T06:14:49.009Z,6.26
2022-11-17T06:15:49.023Z,6.25
2022-11-17T06:16:48.972Z,6.24
2022-11-17T06:17:48.956Z,6.25
2022-11-17T06:18:48.953Z,6.26
2022-11-17T06:19:48.952Z,6.28
2022-11-17T06:20:48.934Z,6.31
2022-11-17T06:22:11.212Z,6.34
2022-11-17T06:22:48.968Z,6.38
2022-11-17T06:23:48.895Z,6.41
2022-11-17T06:24:48.862Z,6.45
2022-11-17T06:25:48.845Z,6.48
2022-11-17T06:26:48.849Z,6.51
2022-11-17T06:27:48.826Z,6.54
2022-11-17T06:28:48.816Z,6.57
2022-11-17T06:29:48.795Z,6.60
2022-11-17T06:30:48.832Z,6.63
2022-11-17T06:31:48.767Z,6.65
2022-11-17T06:32:48.781Z,6.67
2022-11-17T06:33:48.737Z,6.69
2022-11-17T06:34:54.867Z,6.71
2022-11-17T06:35:48.765Z,6.74
2022-11-17T06:36:48.703Z,6.75
2022-11-17T06:37:48.720Z,6.77
2022-11-17T06:38:48.714Z,6.78
2022-11-17T06:39:48.704Z,6.80
2022-11-17T06:40:48.676Z,6.81
2022-11-17T06:41:48.636Z,6.83
2022-11-17T06:42:48.643Z,6.84
2022-11-17T06:43:48.643Z,6.86
2022-11-17T06:44:48.601Z,6.88
2022-11-17T06:45:48.599Z,6.89
2022-11-17T06:46:49.334Z,6.90
2022-11-17T06:47:48.563Z,6.91
2022-11-17T06:48:48.575Z,6.91
2022-11-17T06:49:48.539Z,6.90
2022-11-17T06:50:48.539Z,6.88
2022-11-17T06:51:48.515Z,6.84
2022-11-17T06:52:48.561Z,6.79
2022-11-17T06:53:48.525Z,6.75
2022-11-17T06:54:48.523Z,6.72
2022-11-17T06:55:48.497Z,6.70
2022-11-17T06:56:48.496Z,6.69
2022-11-17T06:57:53.163Z,6.67
2022-11-17T06:58:48.482Z,6.66
2022-11-17T06:59:48.459Z,6.64
2022-11-17T07:00:48.478Z,6.62
2022-11-17T07:01:48.432Z,6.59
2022-11-17T07:02:48.395Z,6.57
2022-11-17T07:03:48.406Z,6.55
2022-11-17T07:04:48.372Z,6.55
2022-11-17T07:05:48.401Z,6.56
2022-11-17T07:06:48.346Z,6.57
2022-11-17T07:07:48.431Z,6.58
2022-11-17T07:08:48.326Z,6.60
2022-11-17T07:09:48.384Z,6.62
2022-11-17T07:10:49.500Z,6.65
2022-11-17T07:11:48.335Z,6.67
2022-11-17T07:12:48.289Z,6.70
2022-11-17T07:13:48.297Z,6.73
2022-11-17T07:14:48.241Z,6.75
2022-11-17T07:15:48.260Z,6.76
2022-11-17T07:16:48.226Z,6.77
2022-11-17T07:17:48.227Z,6.78
2022-11-17T07:18:48.209Z,6.79
2022-11-17T07:19:48.225Z,6.81
2022-11-17T07:20:48.203Z,6.82
2022-11-17T07:21:48.176Z,6.84
2022-11-17T07:22:48.154Z,6.86
2022-11-17T07:23:48.227Z,6.87
2022-11-17T07:24:48.119Z,6.89
2022-11-17T07:25:48.125Z,6.90
2022-11-17T07:26:48.092Z,6.91
2022-11-17T07:27:48.110Z,6.93
2022-11-17T07:28:48.084Z,6.94
2022-11-17T07:29:48.118Z,6.96
2022-11-17T07:30:48.069Z,6.97
2022-11-17T07:31:48.053Z,6.98
2022-11-17T07:32:53.355Z,6.99
2022-11-17T07:33:48.029Z,7.00
2022-11-17T07:34:48.014Z,7.01
2022-11-17T07:35:48.000Z,7.03
2022-11-17T07:36:47.969Z,7.04
2022-11-17T07:37:47.989Z,7.05
2022-11-17T07:38:47.937Z,7.04
2022-11-17T07:39:47.964Z,7.01
2022-11-17T07:40:47.910Z,6.98
2022-11-17T07:41:47.927Z,6.95
2022-11-17T07:42:47.897Z,6.94
2022-11-17T07:43:47.893Z,6.92
2022-11-17T07:44:47.870Z,6.92
2022-11-17T07:45:47.867Z,6.92
2022-11-17T07:46:47.834Z,6.92
2022-11-17T07:47:47.856Z,6.93
2022-11-17T07:48:47.830Z,6.93
2022-11-17T07:49:47.833Z,6.94
2022-11-17T07:50:47.880Z,6.95
2022-11-17T07:51:47.794Z,6.97
2022-11-17T07:52:47.780Z,6.98
2022-11-17T07:53:47.765Z,7.00
2022-11-17T07:54:47.740Z,7.01
2022-11-17T07:55:47.737Z,7.02
2022-11-17T07:56:47.738Z,7.02
2022-11-17T07:57:47.724Z,7.01
2022-11-17T07:58:47.690Z,7.01
2022-11-17T07:59:47.702Z,7.01
2022-11-17T08:00:47.729Z,7.01
2022-11-17T08:01:47.664Z,7.01
2022-11-17T08:02:47.652Z,7.02
2022-11-17T08:03:47.744Z,7.03
2022-11-17T08:04:47.612Z,7.05
2022-11-17T08:05:47.613Z,7.05
2022-11-17T08:06:47.580Z,7.06
2022-11-17T08:07:47.588Z,7.06
2022-11-17T08:08:47.558Z,7.07
2022-11-17T08:09:47.569Z,7.08
2022-11-17T08:10:47.529Z,7.09
2022-11-17T08:11:47.547Z,7.10
2022-11-17T08:12:47.628Z,7.11
2022-11-17T08:13:47.516Z,7.12
2022-11-17T08:14:47.493Z,7.14
2022-11-17T08:15:47.488Z,7.15
2022-11-17T08:16:47.457Z,7.16
2022-11-17T08:17:47.466Z,7.18
2022-11-17T08:18:52.041Z,7.20
2022-11-17T08:19:47.454Z,7.21
2022-11-17T08:20:47.405Z,7.21
2022-11-17T08:21:47.425Z,7.20
2022-11-17T08:22:47.372Z,7.19
2022-11-17T08:23:47.404Z,7.18
2022-11-17T08:24:47.375Z,7.17
2022-11-17T08:25:47.376Z,7.16
2022-11-17T08:26:47.351Z,7.14
2022-11-17T08:27:47.355Z,7.12
2022-11-17T08:28:47.303Z,7.10
2022-11-17T08:29:47.322Z,7.09
2022-11-17T08:30:47.269Z,7.06
2022-11-17T08:31:47.305Z,7.04
2022-11-17T08:32:47.316Z,7.02
2022-11-17T08:33:47.485Z,7.00
2022-11-17T08:34:47.296Z,6.99
2022-11-17T08:35:47.237Z,6.99
2022-11-17T08:36:47.251Z,6.98
2022-11-17T08:37:47.202Z,6.98
2022-11-17T08:38:47.165Z,6.99
2022-11-17T08:39:47.180Z,6.99
2022-11-17T08:40:47.150Z,6.99
2022-11-17T08:41:47.164Z,6.99
2022-11-17T08:42:47.142Z,7.00
2022-11-17T08:43:47.132Z,7.02
2022-11-17T08:44:47.090Z,7.04
2022-11-17T08:45:47.101Z,7.06
2022-11-17T08:46:47.070Z,7.07
2022-11-17T08:47:47.103Z,7.09
2022-11-17T08:48:52.211Z,7.10
2022-11-17T08:49:47.055Z,7.12
2022-11-17T08:50:47.020Z,7.14
2022-11-17T08:51:47.047Z,7.15
2022-11-17T08:52:46.993Z,7.17
2022-11-17T08:53:46.998Z,7.19
2022-11-17T08:54:46.967Z,7.22
2022-11-17T08:55:47.068Z,7.24
2022-11-17T08:56:46.983Z,7.26
2022-11-17T08:57:46.980Z,7.29
2022-11-17T08:58:46.984Z,7.31
2022-11-17T08:59:46.908Z,7.34
2022-11-17T09:00:46.934Z,7.37
2022-11-17T09:01:46.917Z,7.40
2022-11-17T09:02:46.908Z,7.43
2022-11-17T09:03:46.864Z,7.46
2022-11-17T09:04:46.865Z,7.50
2022-11-17T09:05:46.836Z,7.53
2022-11-17T09:06:46.816Z,7.56
2022-11-17T09:07:46.903Z,7.60
2022-11-17T09:08:56.349Z,7.63
2022-11-17T09:09:46.783Z,7.66
2022-11-17T09:10:46.757Z,7.69
2022-11-17T09:11:46.791Z,7.72
2022-11-17T09:12:46.773Z,7.75
2022-11-17T09:13:46.860Z,7.78
2022-11-17T09:14:46.698Z,7.80
2022-11-17T09:15:46.749Z,7.83
2022-11-17T09:16:46.695Z,7.85
2022-11-17T09:17:46.678Z,7.87
2022-11-17T09:18:46.642Z,7.89
2022-11-17T09:19:46.653Z,7.91
2022-11-17T09:20:46.619Z,7.94
2022-11-17T09:21:46.646Z,7.96
2022-11-17T09:22:46.592Z,7.98
2022-11-17T09:23:46.605Z,8.00
2022-11-17T09:24:46.574Z,8.01
2022-11-17T09:25:46.599Z,8.03
2022-11-17T09:26:46.548Z,8.05
2022-11-17T09:27:46.567Z,8.07
2022-11-17T09:28:46.577Z,8.09
2022-11-17T09:29:46.585Z,8.11
2022-11-17T09:30:46.530Z,8.11
2022-11-17T09:31:46.566Z,8.11
2022-11-17T09:32:46.483Z,8.12
2022-11-17T09:33:46.485Z,8.13
2022-11-17T09:34:46.551Z,8.15
2022-11-17T09:35:46.481Z,8.17
2022-11-17T09:36:46.442Z,8.19
2022-11-17T09:37:46.459Z,8.22
2022-11-17T09:38:46.413Z,8.24
2022-11-17T09:39:46.416Z,8.26
2022-11-17T09:40:46.392Z,8.29
2022-11-17T09:41:46.434Z,8.32
2022-11-17T09:42:46.374Z,8.34
2022-11-17T09:43:46.352Z,8.37
2022-11-17T09:44:46.332Z,8.40
2022-11-17T09:45:46.334Z,8.43
2022-11-17T09:46:46.307Z,8.47
2022-11-17T09:47:46.298Z,8.50
2022-11-17T09:48:46.350Z,8.54
2022-11-17T09:49:46.309Z,8.58
2022-11-17T09:50:46.256Z,8.62
2022-11-17T09:51:46.254Z,8.67
2022-11-17T09:52:46.320Z,8.71
2022-11-17T09:53:46.354Z,8.75
2022-11-17T09:54:46.318Z,8.80
2022-11-17T09:55:46.239Z,8.85
2022-11-17T09:56:46.169Z,8.90
2022-11-17T09:57:46.190Z,8.95
2022-11-17T09:58:46.208Z,8.99
2022-11-17T09:59:46.184Z,9.03
2022-11-17T10:00:46.149Z,9.07
2022-11-17T10:01:46.163Z,9.11
2022-11-17T10:02:46.143Z,9.15
2022-11-17T10:03:46.623Z,9.18
2022-11-17T10:04:46.076Z,9.22
2022-11-17T10:05:46.082Z,9.25
2022-11-17T10:06:46.547Z,9.28
2022-11-17T10:07:46.076Z,9.31
2022-11-17T10:08:46.100Z,9.34
2022-11-17T10:09:46.035Z,9.37
2022-11-17T10:10:52.489Z,9.39
2022-11-17T10:11:46.675Z,9.42
2022-11-17T10:12:45.968Z,9.44
2022-11-17T10:13:45.986Z,9.46
2022-11-17T10:14:45.958Z,9.48
2022-11-17T10:15:45.978Z,9.50
2022-11-17T10:16:45.922Z,9.51
2022-11-17T10:17:45.967Z,9.53
2022-11-17T10:18:45.917Z,9.53
2022-11-17T10:19:45.903Z,9.55
2022-11-17T10:20:45.907Z,9.58
2022-11-17T10:21:45.889Z,9.62
2022-11-17T10:22:45.843Z,9.68
2022-11-17T10:23:47.248Z,9.73
2022-11-17T10:24:45.832Z,9.78
2022-11-17T10:25:45.913Z,9.83
2022-11-17T10:26:45.795Z,9.87
2022-11-17T10:27:45.811Z,9.90
2022-11-17T10:28:45.771Z,9.94
2022-11-17T10:29:45.794Z,9.98
2022-11-17T10:30:45.756Z,10.01
2022-11-17T10:31:45.778Z,10.05
2022-11-17T10:32:48.296Z,10.09
2022-11-17T10:33:45.786Z,10.14
2022-11-17T10:34:45.699Z,10.18
2022-11-17T10:35:45.729Z,10.22
2022-11-17T10:36:45.696Z,10.27
2022-11-17T10:37:45.695Z,10.30
2022-11-17T10:38:45.684Z,10.33
2022-11-17T10:39:45.668Z,10.37
2022-11-17T10:40:45.637Z,10.41
2022-11-17T10:41:45.657Z,10.44
2022-11-17T10:42:45.613Z,10.45
2022-11-17T10:43:45.639Z,10.46
2022-11-17T10:44:45.581Z,10.47
2022-11-17T10:45:45.656Z,10.47
2022-11-17T10:46:46.697Z,10.47
2022-11-17T10:47:45.565Z,10.49
2022-11-17T10:48:45.528Z,10.49
2022-11-17T10:49:45.549Z,10.50
2022-11-17T10:50:45.500Z,10.51
2022-11-17T10:51:45.538Z,10.52
2022-11-17T10:52:45.501Z,10.54
2022-11-17T10:53:46.889Z,10.56
2022-11-17T10:54:45.478Z,10.58
2022-11-17T10:55:45.459Z,10.60
2022-11-17T10:56:45.437Z,10.62
2022-11-17T10:57:45.445Z,10.63
2022-11-17T10:58:45.400Z,10.65
2022-11-17T10:59:45.410Z,10.66
2022-11-17T11:00:45.416Z,10.67
2022-11-17T11:01:45.428Z,10.67
2022-11-17T11:02:45.357Z,10.67
2022-11-17T11:03:45.356Z,10.68
2022-11-17T11:04:45.320Z,10.68
2022-11-17T11:05:45.332Z,10.68
2022-11-17T11:06:45.295Z,10.69
2022-11-17T11:07:45.347Z,10.70
2022-11-17T11:08:45.268Z,10.72
2022-11-17T11:09:45.280Z,10.74
2022-11-17T11:10:45.246Z,10.76
2022-11-17T11:11:45.251Z,10.78
2022-11-17T11:12:45.226Z,10.80
2022-11-17T11:13:45.205Z,10.81
2022-11-17T11:14:45.241Z,10.82
2022-11-17T11:15:45.182Z,10.82
2022-11-17T11:16:48.178Z,10.83
2022-11-17T11:17:45.168Z,10.84
2022-11-17T11:18:45.161Z,10.85
2022-11-17T11:19:45.147Z,10.86
2022-11-17T11:20:45.185Z,10.86
2022-11-17T11:21:45.130Z,10.87
2022-11-17T11:22:45.115Z,10.86
2022-11-17T11:23:45.082Z,10.87
2022-11-17T11:24:45.099Z,10.87
2022-11-17T11:25:45.046Z,10.87
2022-11-17T11:26:45.059Z,10.87
2022-11-17T11:27:45.042Z,10.87
2022-11-17T11:28:49.005Z,10.89
2022-11-17T11:29:44.997Z,10.90
2022-11-17T11:30:45.014Z,10.91
2022-11-17T11:31:44.991Z,10.92
2022-11-17T11:32:44.978Z,10.93
2022-11-17T11:33:44.984Z,10.94
2022-11-17T11:34:45.017Z,10.95
2022-11-17T11:35:44.952Z,10.95
2022-11-17T11:36:44.930Z,10.94
2022-11-17T11:37:44.888Z,10.93
2022-11-17T11:38:44.912Z,10.92
2022-11-17T11:39:44.898Z,10.92
2022-11-17T11:40:44.911Z,10.91
2022-11-17T11:41:44.831Z,10.91
2022-11-17T11:42:44.841Z,10.90
2022-11-17T11:43:44.874Z,10.89
2022-11-17T11:44:44.819Z,10.88
2022-11-17T11:45:44.783Z,10.87
2022-11-17T11:46:44.789Z,10.87
2022-11-17T11:47:44.750Z,10.86
2022-11-17T11:48:44.777Z,10.86
2022-11-17T11:49:44.728Z,10.86
2022-11-17T11:50:44.753Z,10.86
2022-11-17T11:51:44.697Z,10.86
2022-11-17T11:52:44.710Z,10.85
2022-11-17T11:53:44.753Z,10.83
2022-11-17T11:54:49.410Z,10.82
2022-11-17T11:55:44.650Z,10.80
2022-11-17T11:56:44.659Z,10.79
2022-11-17T11:57:44.627Z,10.78
2022-11-17T11:58:44.630Z,10.78
2022-11-17T11:59:44.597Z,10.78
2022-11-17T12:00:44.620Z,10.77
2022-11-17T12:01:44.570Z,10.77
2022-11-17T12:02:44.610Z,10.77
2022-11-17T12:03:44.676Z,10.78
2022-11-17T12:04:44.580Z,10.80
2022-11-17T12:05:44.532Z,10.82
2022-11-17T12:06:44.532Z,10.85
2022-11-17T12:07:44.505Z,10.87
2022-11-17T12:08:44.494Z,10.89
2022-11-17T12:09:44.460Z,10.90
2022-11-17T12:10:44.488Z,10.91
2022-11-17T12:11:44.441Z,10.93
2022-11-17T12:12:44.439Z,10.94
2022-11-17T12:13:49.813Z,10.95
2022-11-17T12:14:44.439Z,10.96
2022-11-17T12:15:44.377Z,10.96
2022-11-17T12:16:44.396Z,10.95
2022-11-17T12:17:44.363Z,10.95
2022-11-17T12:18:44.361Z,10.94
2022-11-17T12:19:44.326Z,10.94
2022-11-17T12:20:44.361Z,10.93
2022-11-17T12:21:44.327Z,10.92
2022-11-17T12:22:44.319Z,10.91
2022-11-17T12:23:44.285Z,10.89
2022-11-17T12:24:44.286Z,10.88
2022-11-17T12:25:46.841Z,10.87
2022-11-17T12:26:44.271Z,10.86
2022-11-17T12:27:44.279Z,10.85
2022-11-17T12:28:44.232Z,10.84
2022-11-17T12:29:44.200Z,10.83
2022-11-17T12:30:44.219Z,10.81
2022-11-17T12:31:44.176Z,10.80
2022-11-17T12:32:44.177Z,10.79
2022-11-17T12:33:44.156Z,10.78
2022-11-17T12:34:44.153Z,10.77
2022-11-17T12:35:44.113Z,10.77
2022-11-17T12:36:44.133Z,10.77
2022-11-17T12:37:44.092Z,10.77
2022-11-17T12:38:44.138Z,10.77
2022-11-17T12:39:44.080Z,10.78
2022-11-17T12:40:44.083Z,10.79
2022-11-17T12:41:44.052Z,10.80
2022-11-17T12:42:44.052Z,10.81
2022-11-17T12:43:44.024Z,10.81
2022-11-17T12:44:44.029Z,10.81
2022-11-17T12:45:43.996Z,10.81
2022-11-17T12:46:43.991Z,10.81
2022-11-17T12:47:44.111Z,10.81
2022-11-17T12:48:44.026Z,10.81
2022-11-17T12:49:43.932Z,10.81
2022-11-17T12:50:43.957Z,10.82
2022-11-17T12:51:43.903Z,10.82
2022-11-17T12:52:43.939Z,10.82
2022-11-17T12:53:43.891Z,10.82
2022-11-17T12:54:43.895Z,10.81
2022-11-17T12:55:43.867Z,10.81
2022-11-17T12:56:43.887Z,10.80
2022-11-17T12:57:43.825Z,10.80
2022-11-17T12:58:43.840Z,10.80
2022-11-17T12:59:43.797Z,10.79
2022-11-17T13:00:43.847Z,10.79
2022-11-17T13:01:43.789Z,10.79
2022-11-17T13:02:43.803Z,10.79
2022-11-17T13:03:43.744Z,10.80
2022-11-17T13:04:48.011Z,10.80
2022-11-17T13:05:43.738Z,10.81
2022-11-17T13:06:43.719Z,10.81
2022-11-17T13:07:43.699Z,10.81
2022-11-17T13:08:43.735Z,10.81
2022-11-17T13:09:43.658Z,10.81
2022-11-17T13:10:43.680Z,10.81
2022-11-17T13:11:43.658Z,10.81
2022-11-17T13:12:43.655Z,10.82
2022-11-17T13:13:46.945Z,10.82
2022-11-17T13:14:43.615Z,10.82
2022-11-17T13:15:43.592Z,10.82
2022-11-17T13:16:43.597Z,10.82
2022-11-17T13:17:43.551Z,10.82
2022-11-17T13:18:43.572Z,10.83
2022-11-17T13:19:43.555Z,10.83
2022-11-17T13:20:43.570Z,10.82
2022-11-17T13:21:43.793Z,10.82
2022-11-17T13:22:43.514Z,10.81
2022-11-17T13:23:43.475Z,10.80
2022-11-17T13:24:43.688Z,10.79
2022-11-17T13:25:43.627Z,10.78
2022-11-17T13:26:43.932Z,10.78
2022-11-17T13:27:43.435Z,10.78
2022-11-17T13:28:43.754Z,10.78
2022-11-17T13:29:43.408Z,10.79
2022-11-17T13:30:43.435Z,10.79
2022-11-17T13:31:43.375Z,10.80
2022-11-17T13:32:43.392Z,10.80
2022-11-17T13:33:43.361Z,10.81
2022-11-17T13:34:43.739Z,10.82
2022-11-17T13:35:43.692Z,10.83
2022-11-17T13:36:43.344Z,10.84
2022-11-17T13:37:43.293Z,10.86
2022-11-17T13:38:43.411Z,10.87
2022-11-17T13:39:43.512Z,10.88
2022-11-17T13:40:43.280Z,10.90
2022-11-17T13:41:43.307Z,10.92
2022-11-17T13:42:43.276Z,10.96
2022-11-17T13:43:43.235Z,11.02
2022-11-17T13:44:43.240Z,11.11
2022-11-17T13:45:43.415Z,11.23
2022-11-17T13:46:43.205Z,11.36
2022-11-17T13:47:43.259Z,11.48
2022-11-17T13:48:43.491Z,11.62
2022-11-17T13:49:43.147Z,11.76
2022-11-17T13:50:43.174Z,11.89
2022-11-17T13:51:43.173Z,12.00
2022-11-17T13:52:46.912Z,12.05
2022-11-17T13:53:43.104Z,12.07
2022-11-17T13:54:43.101Z,12.07
2022-11-17T13:55:43.078Z,12.06
2022-11-17T13:56:43.078Z,12.04
2022-11-17T13:57:43.039Z,12.02
2022-11-17T13:58:43.061Z,12.00
2022-11-17T13:59:43.034Z,11.97
2022-11-17T14:00:43.022Z,11.94
2022-11-17T14:01:43.030Z,11.91
2022-11-17T14:02:43.007Z,11.88
2022-11-17T14:03:42.984Z,11.86
2022-11-17T14:04:42.965Z,11.83
2022-11-17T14:05:42.985Z,11.79
2022-11-17T14:06:42.936Z,11.76
2022-11-17T14:07:42.915Z,11.73
2022-11-17T14:08:42.937Z,11.71
2022-11-17T14:09:42.879Z,11.68
2022-11-17T14:10:42.947Z,11.66
2022-11-17T14:11:42.870Z,11.63
2022-11-17T14:12:42.861Z,11.61
2022-11-17T14:13:42.839Z,11.58